Terminal Aerodrome Forecast
Issued by NWS Bismarck, ND

Home | Current Version | Previous Version | Graphics & Text | Print | Product List | Glossary On
Versions: 1 2 3 4 5 6 7 8 9 10 11 12 13 14 15
360
FTUS43 KBIS 211406 AAB
TAFBIS
TAF AMD
KBIS 211406Z 2114/2212 16016G25KT P6SM FEW040
     FM211700 14021G30KT P6SM SCT045
     FM221000 15013KT P6SM BKN025=

USA.gov is the U.S. government's official web portal to all federal, state and local government web resources and services.